Time;durP1;ratioP1;P1;durP2;ratioP2;P2;SDS_P1;SDS_P2;PMS_P1;PMS_P2;Temp;Humidity;BMP_temperature;BMP_pressure;BME280_temperature;BME280_humidity;BME280_pressure;Samples;Min_cycle;Max_cycle;Signal;HPM_P1;HPM_P2
2022/11/30 00:00:34;;;;;;;33.00;30.40;;;10.20;41.00;;;;;;5087385;28;20815;-55
2022/11/30 00:03:00;;;;;;;34.27;31.37;;;10.10;41.70;;;;;;5084934;28;20459;-54
2022/11/30 00:05:26;;;;;;;32.20;29.70;;;10.10;42.20;;;;;;5085686;28;20414;-55
2022/11/30 00:07:53;;;;;;;32.97;30.17;;;10.20;41.80;;;;;;5080654;28;20617;-54
2022/11/30 00:10:20;;;;;;;31.87;29.50;;;10.20;41.80;;;;;;5085044;28;20511;-54
2022/11/30 00:12:46;;;;;;;31.07;28.60;;;10.20;41.80;;;;;;5084793;28;20407;-53
2022/11/30 00:15:13;;;;;;;33.30;30.53;;;10.20;41.80;;;;;;5083401;28;20408;-54
2022/11/30 00:17:43;;;;;;;31.90;29.30;;;10.30;41.30;;;;;;5082570;28;20170;-51
2022/11/30 00:20:09;;;;;;;31.53;29.13;;;10.30;41.20;;;;;;5083211;28;20919;-54
2022/11/30 00:22:35;;;;;;;31.00;28.37;;;10.30;41.00;;;;;;5082568;28;20820;-54
2022/11/30 00:25:03;;;;;;;33.33;30.63;;;10.30;41.40;;;;;;5082699;28;20479;-51
2022/11/30 00:27:30;;;;;;;32.03;29.43;;;10.20;41.80;;;;;;5084970;28;20178;-58
2022/11/30 00:29:56;;;;;;;33.40;30.80;;;10.20;41.30;;;;;;5084233;28;20416;-58
2022/11/30 00:32:22;;;;;;;33.07;30.47;;;10.20;41.50;;;;;;5085393;28;20412;-58
2022/11/30 00:34:48;;;;;;;32.13;29.53;;;10.30;41.90;;;;;;5085557;28;20446;-58
2022/11/30 00:37:13;;;;;;;32.00;29.50;;;10.30;41.10;;;;;;5103435;28;20508;-59
2022/11/30 00:39:39;;;;;;;31.17;28.77;;;10.20;40.80;;;;;;5085267;28;20270;-58
2022/11/30 00:42:05;;;;;;;31.20;28.90;;;10.20;40.60;;;;;;5083924;28;20779;-58
2022/11/30 00:44:31;;;;;;;33.40;30.63;;;10.20;40.80;;;;;;5085944;28;20256;-58
2022/11/30 00:46:56;;;;;;;32.10;29.60;;;10.20;40.90;;;;;;5105257;28;20529;-58
2022/11/30 00:49:22;;;;;;;32.57;29.90;;;10.30;40.80;;;;;;5104628;28;20174;-58
2022/11/30 00:51:48;;;;;;;31.63;29.13;;;10.20;40.50;;;;;;5086863;28;20407;-58
2022/11/30 00:54:13;;;;;;;31.90;29.33;;;10.20;40.60;;;;;;5086806;28;20651;-59
2022/11/30 00:56:39;;;;;;;30.17;27.90;;;10.30;40.80;;;;;;5085914;28;20208;-58
2022/11/30 00:59:05;;;;;;;30.70;28.40;;;10.30;40.60;;;;;;5084865;28;20637;-53
2022/11/30 01:01:30;;;;;;;28.40;26.20;;;10.20;40.40;;;;;;5082262;28;20185;-53
2022/11/30 01:03:57;;;;;;;31.60;29.00;;;10.20;40.40;;;;;;5083561;28;20572;-53
2022/11/30 01:06:22;;;;;;;28.60;26.50;;;10.20;41.00;;;;;;5081615;28;20178;-53
2022/11/30 01:08:48;;;;;;;30.40;27.90;;;10.20;41.20;;;;;;5082019;28;20449;-54
2022/11/30 01:11:18;;;;;;;28.73;26.43;;;10.20;40.80;;;;;;5083494;28;20180;-55
2022/11/30 01:13:44;;;;;;;29.47;27.07;;;10.30;40.60;;;;;;5083236;28;20181;-52
2022/11/30 01:16:15;;;;;;;32.37;29.77;;;10.30;40.60;;;;;;5084373;28;20412;-51
2022/11/30 01:18:41;;;;;;;30.93;28.23;;;10.20;40.30;;;;;;5081087;28;20182;-52
2022/11/30 01:21:09;;;;;;;30.40;28.13;;;10.10;40.70;;;;;;5082916;28;20412;-54
2022/11/30 01:23:35;;;;;;;32.23;29.77;;;10.20;41.20;;;;;;5082920;28;21129;-58
2022/11/30 01:26:01;;;;;;;31.83;29.37;;;10.20;40.80;;;;;;5085535;28;21115;-59
2022/11/30 01:28:27;;;;;;;31.70;29.23;;;10.10;41.00;;;;;;5085889;28;20400;-58
2022/11/30 01:31:01;;;;;;;31.80;29.40;;;10.10;41.20;;;;;;5085023;28;20170;-58
2022/11/30 01:33:27;;;;;;;29.97;27.70;;;10.10;41.10;;;;;;5083098;28;20549;-53
2022/11/30 01:35:59;;;;;;;29.87;27.67;;;10.10;41.70;;;;;;5083059;28;20431;-53
2022/11/30 01:38:24;;;;;;;31.23;29.00;;;10.10;41.70;;;;;;5083727;28;20182;-53
2022/11/30 01:40:50;;;;;;;30.57;28.20;;;10.10;41.70;;;;;;5081410;28;20423;-54
2022/11/30 01:43:18;;;;;;;33.00;30.20;;;10.10;41.40;;;;;;5082490;28;20233;-59
2022/11/30 01:45:43;;;;;;;31.20;28.73;;;10.10;41.40;;;;;;5083934;28;20174;-58
2022/11/30 01:48:09;;;;;;;29.30;27.10;;;10.10;41.20;;;;;;5083534;28;20934;-58
2022/11/30 01:50:36;;;;;;;29.57;27.37;;;10.20;41.40;;;;;;5085328;28;20181;-58
2022/11/30 01:53:04;;;;;;;31.53;29.10;;;10.20;41.40;;;;;;5085794;28;20181;-58
2022/11/30 01:55:41;;;;;;;31.70;29.20;;;10.20;41.00;;;;;;5084689;28;20434;-58
2022/11/30 01:58:10;;;;;;;30.30;28.00;;;10.20;41.90;;;;;;5086258;28;20443;-59
2022/11/30 02:00:36;;;;;;;28.87;26.67;;;10.20;41.70;;;;;;5084670;28;20900;-58
2022/11/30 02:03:12;;;;;;;29.00;26.87;;;10.20;42.00;;;;;;5084536;28;20938;-55
2022/11/30 02:05:40;;;;;;;28.00;25.83;;;10.20;40.90;;;;;;5102692;28;20464;-54
2022/11/30 02:08:07;;;;;;;30.03;27.83;;;10.20;41.00;;;;;;5101387;28;20404;-55
2022/11/30 02:10:41;;;;;;;28.70;26.50;;;10.20;41.00;;;;;;5081999;28;20412;-53
2022/11/30 02:13:24;;;;;;;30.03;27.80;;;10.20;40.90;;;;;;5081394;28;20416;-55
2022/11/30 02:16:29;;;;;;;29.73;27.47;;;10.20;41.10;;;;;;5081476;28;20941;-52
2022/11/30 02:19:13;;;;;;;30.27;27.67;;;10.20;41.60;;;;;;5080778;28;20443;-53
2022/11/30 02:22:03;;;;;;;28.43;26.40;;;10.20;41.40;;;;;;5083601;28;20452;-52
2022/11/30 02:24:47;;;;;;;29.93;27.73;;;10.20;40.70;;;;;;5083333;28;20455;-54
2022/11/30 02:27:37;;;;;;;29.00;26.80;;;10.30;40.80;;;;;;5081417;28;20412;-50
2022/11/30 02:30:15;;;;;;;28.87;26.67;;;10.20;40.60;;;;;;5079909;28;20419;-51
2022/11/30 02:33:02;;;;;;;28.83;26.43;;;10.20;40.90;;;;;;5080700;28;20514;-54
2022/11/30 02:35:31;;;;;;;28.40;26.30;;;10.20;41.00;;;;;;5081642;28;20420;-54
2022/11/30 02:37:59;;;;;;;29.83;27.63;;;10.20;40.80;;;;;;5081770;28;20560;-55
2022/11/30 02:40:25;;;;;;;28.47;26.40;;;10.20;40.90;;;;;;5080457;28;20970;-55
2022/11/30 02:42:53;;;;;;;27.60;25.50;;;10.20;41.20;;;;;;5080240;28;20428;-53
2022/11/30 02:45:30;;;;;;;27.03;25.10;;;10.20;40.80;;;;;;5081354;28;20174;-57
2022/11/30 02:48:07;;;;;;;27.17;25.17;;;10.10;40.90;;;;;;5083265;28;20420;-58
2022/11/30 02:50:55;;;;;;;26.17;24.23;;;10.00;41.60;;;;;;5083134;28;20414;-58
2022/11/30 02:53:21;;;;;;;25.60;23.70;;;10.10;41.70;;;;;;5083886;28;20416;-58
2022/11/30 02:55:47;;;;;;;26.13;24.27;;;10.10;41.70;;;;;;5082292;28;20472;-58
2022/11/30 02:58:15;;;;;;;25.33;23.50;;;10.10;41.10;;;;;;5083675;28;20907;-58
2022/11/30 03:00:40;;;;;;;25.87;24.07;;;10.00;41.70;;;;;;5082694;28;20178;-58
2022/11/30 03:03:06;;;;;;;24.40;22.63;;;10.00;41.60;;;;;;5083011;28;20458;-58
2022/11/30 03:05:32;;;;;;;24.40;22.73;;;10.10;41.70;;;;;;5084791;28;20526;-58
2022/11/30 03:07:57;;;;;;;26.17;24.17;;;10.10;41.40;;;;;;5083542;28;20513;-58
2022/11/30 03:10:23;;;;;;;27.00;24.90;;;10.10;41.70;;;;;;5083301;28;20215;-58
2022/11/30 03:12:49;;;;;;;25.53;23.83;;;10.10;41.70;;;;;;5083451;28;20198;-59
2022/11/30 03:15:14;;;;;;;25.40;23.73;;;10.10;41.60;;;;;;5083174;28;20181;-58
2022/11/30 03:17:40;;;;;;;25.30;23.60;;;10.10;41.70;;;;;;5081632;28;20174;-58
2022/11/30 03:20:06;;;;;;;24.77;22.97;;;10.10;41.70;;;;;;5082218;28;20174;-58
2022/11/30 03:22:32;;;;;;;23.80;22.10;;;10.10;41.70;;;;;;5082324;28;20165;-58
2022/11/30 03:24:57;;;;;;;25.07;23.33;;;10.10;41.70;;;;;;5082461;28;20467;-58
2022/11/30 03:27:23;;;;;;;23.13;21.53;;;10.20;41.40;;;;;;5081883;28;20518;-58
2022/11/30 03:29:48;;;;;;;24.13;22.50;;;10.10;41.00;;;;;;5082465;28;20178;-58
2022/11/30 03:32:14;;;;;;;22.80;21.30;;;10.10;41.10;;;;;;5082941;28;20173;-58
2022/11/30 03:34:40;;;;;;;22.97;21.40;;;10.10;40.50;;;;;;5081747;28;20190;-58
2022/11/30 03:37:05;;;;;;;23.00;21.60;;;10.20;40.70;;;;;;5065328;28;20193;-58
2022/11/30 03:39:31;;;;;;;24.63;22.83;;;10.20;41.00;;;;;;5082595;28;20642;-59
2022/11/30 03:41:57;;;;;;;24.23;22.63;;;10.20;40.50;;;;;;5082922;28;20551;-59
2022/11/30 03:44:22;;;;;;;22.73;21.23;;;10.00;41.60;;;;;;5100067;28;20216;-59
2022/11/30 03:46:48;;;;;;;24.73;23.13;;;10.00;41.60;;;;;;5083275;28;20185;-59
2022/11/30 03:49:13;;;;;;;23.70;22.20;;;10.00;41.60;;;;;;5082660;28;20178;-59
2022/11/30 03:51:39;;;;;;;21.73;20.43;;;10.10;41.70;;;;;;5082451;28;20174;-59
2022/11/30 03:54:05;;;;;;;23.40;21.53;;;10.10;41.30;;;;;;5081474;28;20190;-59
2022/11/30 03:56:30;;;;;;;21.80;20.40;;;10.20;41.80;;;;;;5081570;28;20221;-59
2022/11/30 03:58:56;;;;;;;22.00;20.60;;;10.10;40.80;;;;;;5081984;28;20210;-59
2022/11/30 04:01:23;;;;;;;23.77;22.13;;;10.10;41.10;;;;;;5082346;28;20174;-59
2022/11/30 04:03:51;;;;;;;23.50;21.70;;;10.10;41.70;;;;;;5080233;28;20201;-59
2022/11/30 04:06:17;;;;;;;22.97;21.37;;;10.20;41.80;;;;;;5082163;28;20400;-59
2022/11/30 04:08:43;;;;;;;23.10;21.50;;;10.20;41.60;;;;;;5085468;28;20500;-59
2022/11/30 04:11:09;;;;;;;21.20;19.90;;;10.20;41.40;;;;;;5086058;28;20443;-52
2022/11/30 04:13:36;;;;;;;21.97;20.57;;;10.30;41.10;;;;;;5085896;28;20416;-54
2022/11/30 04:16:02;;;;;;;23.13;21.60;;;10.30;40.40;;;;;;5084942;28;20434;-55
2022/11/30 04:18:30;;;;;;;21.93;20.60;;;10.40;40.90;;;;;;5086786;28;20760;-54
2022/11/30 04:20:57;;;;;;;22.90;21.33;;;10.40;40.90;;;;;;5085843;28;20416;-53
2022/11/30 04:23:25;;;;;;;22.60;21.20;;;10.50;40.80;;;;;;5087176;28;20447;-55
2022/11/30 04:25:51;;;;;;;21.23;19.73;;;10.60;40.10;;;;;;5088704;28;20407;-50
2022/11/30 04:28:17;;;;;;;23.23;21.63;;;10.60;39.90;;;;;;5088062;28;20817;-52
2022/11/30 04:30:44;;;;;;;22.80;21.40;;;10.70;39.60;;;;;;5087644;28;20404;-53
2022/11/30 04:33:11;;;;;;;21.33;19.93;;;10.70;39.30;;;;;;5089401;28;20415;-53
2022/11/30 04:35:42;;;;;;;20.73;19.47;;;10.70;38.90;;;;;;5091261;28;20486;-59
2022/11/30 04:38:08;;;;;;;22.70;21.20;;;10.70;38.90;;;;;;5089276;28;20747;-55
2022/11/30 04:40:33;;;;;;;23.90;22.23;;;10.80;38.90;;;;;;5091917;28;20543;-55
2022/11/30 04:42:59;;;;;;;22.83;21.23;;;10.80;38.90;;;;;;5075355;28;20193;-55
2022/11/30 04:45:25;;;;;;;21.33;20.03;;;10.70;38.90;;;;;;5090896;28;20166;-59
2022/11/30 04:47:50;;;;;;;20.43;19.03;;;10.80;38.90;;;;;;5092584;28;20227;-52
2022/11/30 04:50:16;;;;;;;20.90;19.43;;;10.80;38.70;;;;;;5110290;28;20626;-55
2022/11/30 04:52:41;;;;;;;21.43;20.03;;;10.80;38.60;;;;;;5093742;28;20200;-55
2022/11/30 04:55:07;;;;;;;20.83;19.53;;;10.70;38.40;;;;;;5092149;28;20178;-54
2022/11/30 04:57:33;;;;;;;20.17;18.97;;;10.70;38.60;;;;;;5094918;28;20254;-54
2022/11/30 04:59:59;;;;;;;20.53;19.30;;;10.70;38.50;;;;;;5090691;28;20412;-53
2022/11/30 05:02:24;;;;;;;21.97;20.40;;;10.60;39.00;;;;;;5092101;28;20184;-54
2022/11/30 05:04:50;;;;;;;20.70;19.40;;;10.40;39.00;;;;;;5092253;28;20685;-52
2022/11/30 05:07:15;;;;;;;21.10;19.80;;;10.20;40.40;;;;;;5094557;28;20565;-54
2022/11/30 05:09:41;;;;;;;21.70;20.23;;;10.20;41.60;;;;;;5095298;28;20174;-54
2022/11/30 05:12:07;;;;;;;22.33;20.73;;;10.30;40.80;;;;;;5112966;28;20171;-59
2022/11/30 05:14:32;;;;;;;21.20;19.90;;;10.30;40.60;;;;;;5093839;28;20235;-59
2022/11/30 05:16:58;;;;;;;22.07;20.67;;;10.30;40.20;;;;;;5092966;28;20223;-59
2022/11/30 05:19:23;;;;;;;21.57;20.27;;;10.30;40.20;;;;;;5095253;28;20571;-59
2022/11/30 05:21:49;;;;;;;21.83;20.43;;;10.40;40.10;;;;;;5092976;28;20251;-53
2022/11/30 05:24:15;;;;;;;20.83;19.43;;;10.40;40.20;;;;;;5094412;28;20212;-54
2022/11/30 05:26:40;;;;;;;21.67;20.17;;;10.40;40.10;;;;;;5093298;28;20265;-55
2022/11/30 05:29:06;;;;;;;22.47;21.07;;;10.40;40.40;;;;;;5095638;28;20618;-54
2022/11/30 05:31:32;;;;;;;20.93;19.63;;;10.40;40.20;;;;;;5094365;28;20172;-55
2022/11/30 05:33:58;;;;;;;20.40;19.10;;;10.40;40.20;;;;;;5084924;28;20182;-60
2022/11/30 05:36:23;;;;;;;18.70;17.60;;;10.40;40.00;;;;;;5092421;28;20414;-59
2022/11/30 05:38:49;;;;;;;19.67;18.47;;;10.40;40.10;;;;;;5095317;28;20189;-59
2022/11/30 05:41:15;;;;;;;20.37;19.17;;;10.30;40.20;;;;;;5094129;28;20181;-59
2022/11/30 05:43:41;;;;;;;20.57;19.37;;;10.30;40.20;;;;;;5095146;28;20213;-59
2022/11/30 05:46:08;;;;;;;19.80;18.60;;;10.30;40.50;;;;;;5094379;28;20761;-59
2022/11/30 05:48:34;;;;;;;21.27;19.87;;;10.20;40.70;;;;;;5093629;28;20170;-58
2022/11/30 05:51:11;;;;;;;19.77;18.57;;;10.20;40.70;;;;;;5093841;28;20419;-54
2022/11/30 05:53:38;;;;;;;20.17;18.97;;;10.30;40.60;;;;;;5094445;28;21105;-49
2022/11/30 05:56:05;;;;;;;22.70;21.20;;;10.30;40.40;;;;;;5094186;28;20923;-52
2022/11/30 05:58:32;;;;;;;21.70;20.27;;;10.30;40.10;;;;;;5093708;28;20557;-52
2022/11/30 06:00:57;;;;;;;22.73;21.30;;;10.30;40.50;;;;;;5093104;28;20415;-58
2022/11/30 06:03:23;;;;;;;21.37;20.07;;;10.30;40.20;;;;;;5094675;28;20451;-59
2022/11/30 06:05:50;;;;;;;19.30;18.10;;;10.20;40.40;;;;;;5094705;28;20170;-59
2022/11/30 06:08:16;;;;;;;19.70;18.43;;;10.30;40.60;;;;;;5094568;28;20408;-58
2022/11/30 06:10:42;;;;;;;20.53;19.33;;;10.20;40.20;;;;;;5093391;28;20404;-59
2022/11/30 06:13:08;;;;;;;20.20;18.67;;;10.20;40.60;;;;;;5111215;28;20829;-56
2022/11/30 06:15:36;;;;;;;20.93;19.63;;;10.20;40.50;;;;;;5092801;28;20180;-51
2022/11/30 06:18:02;;;;;;;20.70;19.30;;;10.20;40.70;;;;;;5093629;28;20423;-50
2022/11/30 06:20:28;;;;;;;21.47;20.20;;;10.20;40.40;;;;;;5093264;28;20510;-54
2022/11/30 06:22:54;;;;;;;21.20;19.90;;;10.00;41.60;;;;;;5094577;28;20439;-56
2022/11/30 06:25:20;;;;;;;20.87;19.57;;;10.00;42.30;;;;;;5094127;28;20209;-54
2022/11/30 06:27:45;;;;;;;21.20;19.90;;;10.00;41.70;;;;;;5093617;28;20192;-55
2022/11/30 06:30:11;;;;;;;21.17;19.90;;;10.10;41.70;;;;;;5092458;28;20506;-56
2022/11/30 06:32:37;;;;;;;21.43;20.13;;;10.10;41.30;;;;;;5093774;28;20174;-54
2022/11/30 06:35:03;;;;;;;20.90;19.50;;;10.20;40.70;;;;;;5092937;28;20411;-51
2022/11/30 06:37:29;;;;;;;21.20;19.90;;;10.20;40.50;;;;;;5092450;28;20559;-52
2022/11/30 06:39:54;;;;;;;20.40;18.97;;;10.20;40.60;;;;;;5092217;28;20182;-58
2022/11/30 06:42:20;;;;;;;20.27;18.73;;;10.10;40.80;;;;;;5093602;28;20190;-58
2022/11/30 06:44:47;;;;;;;20.47;19.17;;;10.10;40.90;;;;;;5093531;28;20251;-58
2022/11/30 06:47:12;;;;;;;21.33;20.00;;;10.10;41.70;;;;;;5094419;28;20170;-58
2022/11/30 06:49:38;;;;;;;21.80;20.47;;;10.10;41.10;;;;;;5092770;28;20412;-58
2022/11/30 06:52:04;;;;;;;19.97;18.77;;;10.10;41.10;;;;;;5093629;28;20177;-58
2022/11/30 06:54:30;;;;;;;21.30;19.87;;;10.20;41.00;;;;;;5092195;28;20181;-58
2022/11/30 06:56:56;;;;;;;21.10;19.60;;;10.10;41.10;;;;;;5077369;28;20404;-57
2022/11/30 06:59:23;;;;;;;21.17;19.97;;;10.10;40.50;;;;;;5092789;28;20184;-57
2022/11/30 07:01:48;;;;;;;20.47;19.17;;;10.10;41.30;;;;;;5092788;28;20499;-52
2022/11/30 07:04:14;;;;;;;21.77;20.20;;;10.00;41.30;;;;;;5093308;28;21058;-54
2022/11/30 07:06:39;;;;;;;21.03;19.63;;;10.10;41.50;;;;;;5093387;28;20246;-52
2022/11/30 07:09:05;;;;;;;20.80;19.43;;;10.10;40.90;;;;;;5094071;28;20257;-52
2022/11/30 07:11:32;;;;;;;20.97;19.57;;;10.10;41.10;;;;;;5091845;28;20174;-53
2022/11/30 07:13:57;;;;;;;21.27;19.97;;;10.10;41.30;;;;;;5093265;28;20697;-56
2022/11/30 07:16:23;;;;;;;20.40;19.10;;;10.20;41.70;;;;;;5093715;28;20494;-54
2022/11/30 07:18:49;;;;;;;20.60;19.23;;;10.20;41.80;;;;;;5091988;28;20174;-54
2022/11/30 07:21:14;;;;;;;21.10;19.80;;;10.30;41.90;;;;;;5092973;28;20319;-55
2022/11/30 07:26:24;;;;;;;21.77;20.17;;;10.30;41.90;;;;;;5109838;28;20253;-51
2022/11/30 07:28:57;;;;;;;20.83;19.43;;;10.30;41.90;;;;;;5092759;28;20760;-53
2022/11/30 07:31:27;;;;;;;22.03;20.60;;;10.40;41.90;;;;;;5091635;28;20506;-50
2022/11/30 07:33:53;;;;;;;20.70;19.40;;;10.30;40.80;;;;;;5092153;28;20797;-52
2022/11/30 07:36:20;;;;;;;21.40;19.90;;;10.30;41.40;;;;;;5091968;28;20412;-52
2022/11/30 07:38:46;;;;;;;20.90;19.60;;;10.30;41.40;;;;;;5091165;28;20420;-54
2022/11/30 07:41:12;;;;;;;20.77;19.43;;;10.20;41.20;;;;;;5091424;28;20801;-50
2022/11/30 07:43:38;;;;;;;20.67;19.37;;;10.10;41.70;;;;;;5094705;28;20471;-53
2022/11/30 07:46:04;;;;;;;23.33;21.77;;;10.20;41.80;;;;;;5093337;28;20432;-50
2022/11/30 07:48:30;;;;;;;22.40;20.90;;;10.20;41.80;;;;;;5096849;28;20529;-52
2022/11/30 07:51:07;;;;;;;22.60;21.20;;;10.20;41.80;;;;;;5093225;28;20255;-53
2022/11/30 07:53:33;;;;;;;21.90;20.47;;;10.20;41.80;;;;;;5094760;28;20883;-54
2022/11/30 07:56:07;;;;;;;22.10;20.50;;;10.30;41.50;;;;;;5096846;28;20417;-53
2022/11/30 07:58:33;;;;;;;22.53;20.97;;;10.30;41.30;;;;;;5095295;28;20266;-55
2022/11/30 08:01:08;;;;;;;23.30;21.70;;;10.30;41.30;;;;;;5094718;28;20450;-54
2022/11/30 08:03:35;;;;;;;22.20;20.80;;;10.30;41.40;;;;;;5093831;28;20458;-53
2022/11/30 08:06:06;;;;;;;23.17;21.67;;;10.40;41.30;;;;;;5091506;28;20423;-55
2022/11/30 08:08:40;;;;;;;23.67;22.07;;;10.40;41.30;;;;;;5076981;28;20749;-52
2022/11/30 08:11:08;;;;;;;23.60;22.00;;;10.40;41.40;;;;;;5076471;28;20412;-53
2022/11/30 08:13:33;;;;;;;22.97;21.57;;;10.40;41.40;;;;;;5076736;28;20416;-54
2022/11/30 08:16:08;;;;;;;23.20;21.50;;;10.40;41.00;;;;;;5085008;28;20941;-57
2022/11/30 08:18:34;;;;;;;24.13;22.40;;;10.40;41.00;;;;;;5094282;28;20489;-57
2022/11/30 08:21:02;;;;;;;23.50;21.63;;;10.40;41.20;;;;;;5095398;28;20452;-57
2022/11/30 08:23:29;;;;;;;24.33;22.53;;;10.30;40.00;;;;;;5095888;28;20458;-57
2022/11/30 08:25:55;;;;;;;24.10;22.50;;;10.20;41.70;;;;;;5094701;28;20404;-53
2022/11/30 08:28:21;;;;;;;24.20;22.50;;;10.20;41.30;;;;;;5094878;28;20828;-52
2022/11/30 08:30:46;;;;;;;24.73;23.13;;;10.10;41.20;;;;;;5093590;28;20562;-57
2022/11/30 08:33:13;;;;;;;23.80;22.20;;;10.20;41.40;;;;;;5094366;28;20181;-56
2022/11/30 08:35:38;;;;;;;24.63;22.90;;;10.10;41.70;;;;;;5095426;28;20257;-57
2022/11/30 08:38:04;;;;;;;27.47;25.17;;;10.10;41.70;;;;;;5095087;28;20508;-53
2022/11/30 08:40:30;;;;;;;25.00;23.27;;;10.00;42.00;;;;;;5095624;28;20186;-54
2022/11/30 08:42:57;;;;;;;24.53;22.90;;;9.80;43.70;;;;;;5096227;28;20190;-54
2022/11/30 08:45:24;;;;;;;25.40;23.37;;;9.80;43.10;;;;;;5096099;28;20181;-57
2022/11/30 08:47:49;;;;;;;28.63;26.30;;;9.90;41.40;;;;;;5095313;28;20629;-57
2022/11/30 08:50:15;;;;;;;24.93;23.23;;;9.80;40.30;;;;;;5095261;28;20540;-57
2022/11/30 08:52:41;;;;;;;27.57;25.67;;;9.60;39.70;;;;;;5095200;28;20578;-57
2022/11/30 08:55:08;;;;;;;28.50;26.00;;;9.60;40.00;;;;;;5092827;28;20173;-57
2022/11/30 08:57:33;;;;;;;25.13;23.43;;;9.40;40.20;;;;;;5095659;28;20181;-57
2022/11/30 08:59:59;;;;;;;27.57;25.57;;;9.50;40.40;;;;;;5094919;28;20787;-57
2022/11/30 09:02:25;;;;;;;27.20;25.00;;;9.40;40.50;;;;;;5096068;28;20209;-57
2022/11/30 09:04:52;;;;;;;25.33;23.57;;;9.50;41.30;;;;;;5095678;28;20208;-57
2022/11/30 09:07:18;;;;;;;24.90;23.00;;;9.50;39.90;;;;;;5095035;28;20827;-56
2022/11/30 09:09:44;;;;;;;26.63;24.73;;;9.60;40.00;;;;;;5090996;28;20506;-57
2022/11/30 09:12:10;;;;;;;26.13;24.20;;;9.60;39.50;;;;;;5095377;28;20519;-57
2022/11/30 09:14:35;;;;;;;25.30;23.40;;;9.70;38.90;;;;;;5096375;28;20170;-57
2022/11/30 09:17:01;;;;;;;25.57;23.73;;;9.80;40.10;;;;;;5095752;28;20193;-57
2022/11/30 09:19:27;;;;;;;26.57;24.50;;;9.90;39.30;;;;;;5095793;28;20177;-57
2022/11/30 09:21:52;;;;;;;25.87;23.87;;;10.10;37.40;;;;;;5095140;28;20782;-57
2022/11/30 09:24:19;;;;;;;24.50;22.57;;;10.10;36.60;;;;;;5095560;28;20254;-57
2022/11/30 09:26:45;;;;;;;24.40;22.70;;;10.10;37.00;;;;;;5095544;28;20174;-51
2022/11/30 09:29:11;;;;;;;24.80;22.90;;;10.00;37.50;;;;;;5095067;28;20527;-58
2022/11/30 09:31:36;;;;;;;25.90;23.70;;;10.10;37.40;;;;;;5094675;28;20413;-57
2022/11/30 09:34:02;;;;;;;25.77;23.80;;;10.10;37.30;;;;;;5095071;28;20189;-57
2022/11/30 09:36:28;;;;;;;24.30;22.50;;;10.30;37.10;;;;;;5095194;28;20227;-57
2022/11/30 09:38:55;;;;;;;26.47;24.53;;;10.20;37.90;;;;;;5095302;28;20178;-57
2022/11/30 09:41:44;;;;;;;26.90;24.83;;;10.10;37.30;;;;;;5094644;28;20428;-57
2022/11/30 09:44:12;;;;;;;26.23;24.33;;;10.00;37.90;;;;;;5095229;28;20467;-57
2022/11/30 09:46:58;;;;;;;27.40;25.40;;;10.10;38.60;;;;;;5095224;28;20408;-57
2022/11/30 09:49:29;;;;;;;26.27;24.10;;;10.00;38.70;;;;;;5077597;28;20408;-57
2022/11/30 09:51:57;;;;;;;25.63;23.87;;;10.00;38.60;;;;;;5094347;28;20400;-54
2022/11/30 09:54:41;;;;;;;24.97;23.20;;;9.90;39.90;;;;;;5094921;28;20411;-53
2022/11/30 09:57:27;;;;;;;26.00;23.80;;;9.80;40.60;;;;;;5094813;28;20491;-55
2022/11/30 09:59:58;;;;;;;26.93;24.93;;;9.70;40.80;;;;;;5094344;28;20419;-58
2022/11/30 10:02:32;;;;;;;26.37;24.27;;;9.70;40.20;;;;;;5094896;28;20418;-57
2022/11/30 10:04:59;;;;;;;25.60;23.73;;;9.60;40.30;;;;;;5093604;28;20787;-58
2022/11/30 10:07:43;;;;;;;26.60;24.50;;;9.50;40.90;;;;;;5094941;28;20412;-58
2022/11/30 10:10:18;;;;;;;26.80;24.50;;;9.60;41.20;;;;;;5094170;28;20428;-57
2022/11/30 10:12:52;;;;;;;29.10;26.60;;;9.70;40.90;;;;;;5094326;28;20999;-58
2022/11/30 10:15:56;;;;;;;26.60;24.40;;;9.60;39.90;;;;;;5094613;28;20502;-57
2022/11/30 10:18:30;;;;;;;30.13;27.83;;;9.60;40.40;;;;;;5089791;28;20423;-57
2022/11/30 10:21:13;;;;;;;34.13;31.53;;;9.90;39.60;;;;;;5093913;28;20783;-57
2022/11/30 10:23:51;;;;;;;25.77;23.87;;;9.90;39.00;;;;;;5094527;28;20454;-57
2022/11/30 10:26:26;;;;;;;23.97;22.27;;;10.10;36.70;;;;;;5094330;28;20411;-58
2022/11/30 10:28:54;;;;;;;25.70;23.80;;;10.20;35.90;;;;;;5094147;28;20411;-57
2022/11/30 10:31:33;;;;;;;26.03;23.97;;;10.30;35.00;;;;;;5094010;28;20799;-54
2022/11/30 10:34:15;;;;;;;24.73;22.93;;;10.20;36.00;;;;;;5093998;28;20764;-55
2022/11/30 10:36:45;;;;;;;25.93;24.07;;;10.30;35.80;;;;;;5094422;28;20407;-53
2022/11/30 10:39:33;;;;;;;25.73;23.87;;;10.30;36.20;;;;;;5094300;28;20466;-54
2022/11/30 10:42:25;;;;;;;25.50;23.73;;;10.20;37.00;;;;;;5092866;28;20774;-57
2022/11/30 10:45:07;;;;;;;26.40;24.40;;;10.30;36.90;;;;;;5093497;28;20545;-58
2022/11/30 10:47:38;;;;;;;27.00;25.10;;;10.30;36.20;;;;;;5094331;28;20424;-57
2022/11/30 10:50:06;;;;;;;25.40;23.53;;;10.10;36.10;;;;;;5093385;28;20422;-58
2022/11/30 10:52:45;;;;;;;26.33;24.53;;;10.10;37.50;;;;;;5093297;28;20411;-57
2022/11/30 10:55:33;;;;;;;24.63;22.83;;;10.20;37.20;;;;;;5094137;28;20434;-57
2022/11/30 10:58:21;;;;;;;25.57;23.67;;;10.40;36.20;;;;;;5093869;28;20463;-57
2022/11/30 11:01:00;;;;;;;26.27;24.50;;;10.40;37.40;;;;;;5093324;28;20915;-56
2022/11/30 11:03:26;;;;;;;25.60;23.60;;;10.50;36.50;;;;;;5094012;28;20455;-57
2022/11/30 11:06:14;;;;;;;26.50;24.60;;;10.60;35.60;;;;;;5112171;28;20415;-56
2022/11/30 11:08:41;;;;;;;25.97;24.17;;;10.70;35.10;;;;;;5094083;28;20903;-57
2022/11/30 11:11:35;;;;;;;27.00;24.80;;;10.80;34.90;;;;;;5092953;28;20412;-57
2022/11/30 11:14:27;;;;;;;27.63;25.40;;;10.80;35.20;;;;;;5086171;28;20420;-59
2022/11/30 11:17:04;;;;;;;25.80;23.97;;;10.90;34.70;;;;;;5092716;28;20918;-53
2022/11/30 11:19:34;;;;;;;26.50;24.60;;;11.00;34.20;;;;;;5098039;28;20415;-53
2022/11/30 11:22:04;;;;;;;26.83;24.93;;;11.00;33.80;;;;;;5097022;28;20412;-52
2022/11/30 11:24:30;;;;;;;25.77;23.97;;;11.00;33.50;;;;;;5096896;28;20466;-52
2022/11/30 11:26:56;;;;;;;26.40;24.57;;;11.00;33.50;;;;;;5097116;28;20419;-53
2022/11/30 11:29:31;;;;;;;24.33;22.63;;;11.00;33.70;;;;;;5097800;28;20408;-52
2022/11/30 11:32:21;;;;;;;26.10;24.23;;;10.90;34.30;;;;;;5096999;28;20411;-54
2022/11/30 11:34:47;;;;;;;24.93;23.10;;;10.90;34.20;;;;;;5097519;28;20419;-55
2022/11/30 11:37:21;;;;;;;25.20;23.37;;;10.80;34.40;;;;;;5116036;28;20412;-58
2022/11/30 11:40:11;;;;;;;24.40;22.40;;;10.80;34.40;;;;;;5097537;28;20418;-57
2022/11/30 11:42:49;;;;;;;25.83;24.00;;;10.80;33.70;;;;;;5097446;28;20802;-58
2022/11/30 11:45:27;;;;;;;25.67;24.07;;;10.80;33.60;;;;;;5097486;28;20487;-58
2022/11/30 11:48:02;;;;;;;24.50;22.70;;;10.80;33.80;;;;;;5097101;28;20418;-58
2022/11/30 11:50:33;;;;;;;26.10;24.30;;;10.80;34.20;;;;;;5096680;28;20446;-57
2022/11/30 11:53:21;;;;;;;23.80;22.10;;;10.70;34.50;;;;;;5097206;28;20412;-57
2022/11/30 11:56:08;;;;;;;24.37;22.57;;;10.70;34.10;;;;;;5097213;28;20450;-57
2022/11/30 11:58:42;;;;;;;23.27;21.57;;;10.80;33.90;;;;;;5096424;28;20418;-58
2022/11/30 12:01:15;;;;;;;23.43;21.70;;;10.80;33.90;;;;;;5096484;28;20407;-58
2022/11/30 12:03:55;;;;;;;23.50;21.80;;;10.70;33.90;;;;;;5097093;28;20835;-57
2022/11/30 12:06:22;;;;;;;23.80;22.20;;;10.70;34.00;;;;;;5097063;28;20419;-57
2022/11/30 12:08:56;;;;;;;22.80;21.20;;;10.70;33.50;;;;;;5096835;28;20502;-57
2022/11/30 12:11:47;;;;;;;22.80;21.30;;;10.70;33.70;;;;;;5096448;28;20411;-58
2022/11/30 12:14:16;;;;;;;23.27;21.47;;;10.80;34.10;;;;;;5114389;28;20433;-57
2022/11/30 12:16:48;;;;;;;19.97;18.70;;;10.80;34.20;;;;;;5096884;28;20465;-58
2022/11/30 12:19:22;;;;;;;22.77;21.07;;;10.80;33.90;;;;;;5095853;28;20419;-57
2022/11/30 12:22:02;;;;;;;22.47;20.97;;;10.80;33.40;;;;;;5096342;28;20551;-58
2022/11/30 12:24:38;;;;;;;20.83;19.50;;;10.70;33.80;;;;;;5096863;28;20467;-57
2022/11/30 12:27:41;;;;;;;24.40;22.50;;;10.70;33.00;;;;;;5096524;28;20419;-56
2022/11/30 12:30:31;;;;;;;20.40;19.00;;;10.70;33.10;;;;;;5096348;28;20407;-58
2022/11/30 12:33:15;;;;;;;22.07;20.50;;;10.70;32.90;;;;;;5096657;28;20412;-58
2022/11/30 12:35:52;;;;;;;21.90;20.30;;;10.60;32.10;;;;;;5091408;28;20424;-57
2022/11/30 12:38:36;;;;;;;21.63;20.23;;;10.40;33.40;;;;;;5076336;28;20416;-56
2022/11/30 12:41:30;;;;;;;23.10;21.50;;;10.40;33.50;;;;;;5075782;28;20413;-58
2022/11/30 12:44:10;;;;;;;21.33;20.03;;;10.50;32.80;;;;;;5076110;28;20510;-56